Time;durP1;ratioP1;P1;durP2;ratioP2;P2;SDS_P1;SDS_P2;PMS_P1;PMS_P2;Temp;Humidity;BMP_temperature;BMP_pressure;BME280_temperature;BME280_humidity;BME280_pressure;Samples;Min_cycle;Max_cycle;Signal;HPM_P1;HPM_P2
2021/12/14 00:00:40;;;;;;;21.80;15.95;;;;;;;7.70;81.29;102713.47;5031806;28;20112;-70
2021/12/14 00:03:08;;;;;;;23.13;15.05;;;;;;;7.76;80.80;102712.63;5043485;28;20447;-69
2021/12/14 00:05:35;;;;;;;22.13;15.98;;;;;;;7.75;80.89;102716.13;5032418;28;20038;-69
2021/12/14 00:08:03;;;;;;;22.58;15.65;;;;;;;7.73;81.03;102717.88;5023890;28;20057;-67
2021/12/14 00:10:48;;;;;;;22.80;15.43;;;;;;;7.79;80.75;102724.03;5023932;28;20042;-68
2021/12/14 00:13:42;;;;;;;25.23;17.50;;;;;;;7.66;80.90;102722.19;5025361;28;20431;-70
2021/12/14 00:16:03;;;;;;;22.23;15.52;;;;;;;7.71;80.65;102725.72;5033530;28;20084;-70
2021/12/14 00:18:28;;;;;;;22.58;15.50;;;;;;;7.73;80.91;102739.72;5044761;28;20049;-68
2021/12/14 00:21:00;;;;;;;20.10;14.20;;;;;;;7.75;80.89;102743.25;5033906;28;20088;-68
2021/12/14 00:26:16;;;;;;;24.20;14.05;;;;;;;7.79;80.59;102720.53;5025371;28;20475;-61
2021/12/14 00:28:41;;;;;;;20.45;14.10;;;;;;;7.74;80.42;102723.13;5025207;28;20261;-68
2021/12/14 00:31:10;;;;;;;18.23;12.38;;;;;;;7.73;80.66;102734.47;5022175;28;20053;-67
2021/12/14 00:33:37;;;;;;;25.90;16.13;;;;;;;7.64;80.99;102739.63;5029913;28;20033;-67
2021/12/14 00:36:05;;;;;;;21.90;15.15;;;;;;;7.67;81.09;102739.66;5024762;28;20434;-68
2021/12/14 00:38:31;;;;;;;21.67;14.13;;;;;;;7.65;81.02;102729.16;5025178;28;20053;-69
2021/12/14 00:41:01;;;;;;;22.27;14.93;;;;;;;7.66;80.74;102728.31;5018088;28;20041;-68
2021/12/14 00:43:26;;;;;;;21.23;14.73;;;;;;;7.64;80.82;102718.66;5024656;28;20025;-70
2021/12/14 00:45:52;;;;;;;21.05;14.75;;;;;;;7.69;80.64;102719.56;5023169;28;20092;-69
2021/12/14 00:48:18;;;;;;;26.88;17.35;;;;;;;7.63;80.77;102711.66;5024355;28;20033;-69
2021/12/14 00:50:50;;;;;;;21.63;14.95;;;;;;;7.63;80.81;102709.03;5007303;28;20408;-71
2021/12/14 00:53:15;;;;;;;22.73;15.85;;;;;;;7.59;81.10;102716.00;5004087;28;20042;-70
2021/12/14 00:55:43;;;;;;;25.83;18.00;;;;;;;7.67;80.81;102714.31;5019285;28;20152;-68
2021/12/14 00:58:09;;;;;;;27.90;18.73;;;;;;;7.61;80.96;102723.91;5023922;28;20052;-69
2021/12/14 01:00:41;;;;;;;23.20;16.27;;;;;;;7.64;80.80;102703.78;5023369;28;20407;-64
2021/12/14 01:03:07;;;;;;;25.55;19.65;;;;;;;7.57;81.05;102705.50;5024061;28;20034;-67
2021/12/14 01:05:37;;;;;;;24.85;17.35;;;;;;;7.62;80.84;102704.66;5005448;28;20168;-68
2021/12/14 01:08:04;;;;;;;26.58;18.92;;;;;;;7.65;81.01;102695.03;5023958;28;20025;-69
2021/12/14 01:10:42;;;;;;;26.50;17.63;;;;;;;7.65;81.15;102683.69;5022299;28;20137;-68
2021/12/14 01:13:09;;;;;;;28.45;18.67;;;;;;;7.67;81.00;102687.19;5043963;28;20406;-68
2021/12/14 01:18:46;;;;;;;31.13;19.55;;;;;;;7.63;81.20;102669.66;5024342;28;20368;-67
2021/12/14 01:24:09;;;;;;;30.38;20.95;;;;;;;7.59;81.28;102681.91;5004474;28;20064;-68
2021/12/14 01:26:40;;;;;;;28.13;20.40;;;;;;;7.61;81.64;102663.56;5022991;28;20407;-68
2021/12/14 01:29:08;;;;;;;29.75;20.90;;;;;;;7.63;81.13;102661.81;5023502;28;20538;-71
2021/12/14 01:31:37;;;;;;;30.15;20.88;;;;;;;7.62;81.47;102660.94;5021695;28;20018;-69
2021/12/14 01:34:05;;;;;;;;;;;;;;;7.59;81.46;102659.16;5012695;28;20033;-68
2021/12/14 01:36:40;;;;;;;28.48;20.48;;;;;;;7.58;81.52;102654.78;5014401;28;19913;-69
2021/12/14 01:39:47;;;;;;;31.35;21.40;;;;;;;7.57;81.54;102655.66;5017337;28;20507;-69
2021/12/14 01:42:08;;;;;;;29.85;19.88;;;;;;;7.55;82.05;102654.75;5011966;28;20403;-68
2021/12/14 01:44:42;;;;;;;32.88;22.20;;;;;;;7.55;81.80;102673.13;5027936;28;20099;-68
2021/12/14 01:47:17;;;;;;;33.15;22.52;;;;;;;7.59;81.67;102680.13;5025828;28;20105;-69
2021/12/14 01:49:42;;;;;;;32.13;22.42;;;;;;;7.59;81.71;102684.53;5027737;28;20113;-68
2021/12/14 01:52:15;;;;;;;30.10;21.55;;;;;;;7.59;81.91;102685.38;5027580;28;20385;-68
2021/12/14 01:54:46;;;;;;;28.75;20.98;;;;;;;7.58;81.87;102688.00;5010381;28;20041;-67
2021/12/14 01:57:14;;;;;;;32.70;23.48;;;;;;;7.59;81.94;102674.88;5017896;28;20530;-68
2021/12/14 01:59:42;;;;;;;39.83;24.85;;;;;;;7.59;82.01;102677.50;5015560;28;20033;-70
2021/12/14 02:02:29;;;;;;;31.98;23.25;;;;;;;7.54;82.30;102688.84;5021858;28;20381;-68
2021/12/14 02:04:56;;;;;;;33.42;23.05;;;;;;;7.51;82.41;102668.72;5026554;28;20438;-68
2021/12/14 02:07:23;;;;;;;32.95;23.05;;;;;;;7.52;82.42;102686.19;5035604;28;20015;-72
2021/12/14 02:09:59;;;;;;;40.00;26.30;;;;;;;7.45;82.55;102685.28;5015043;28;20033;-71
2021/12/14 02:12:27;;;;;;;30.60;21.08;;;;;;;7.52;82.41;102690.56;5009629;28;20046;-69
2021/12/14 02:14:53;;;;;;;35.25;24.48;;;;;;;7.51;82.32;102671.34;5020759;28;20095;-70
2021/12/14 02:17:22;;;;;;;35.15;24.35;;;;;;;7.51;82.39;102668.72;5006624;28;20473;-69
2021/12/14 02:19:49;;;;;;;37.80;25.83;;;;;;;7.51;82.72;102668.72;5018568;28;20037;-70
2021/12/14 02:22:15;;;;;;;35.38;23.95;;;;;;;7.46;82.72;102683.53;5009760;28;20492;-70
2021/12/14 02:24:44;;;;;;;35.65;25.40;;;;;;;7.45;82.72;102677.41;5006068;28;20087;-69
2021/12/14 02:27:09;;;;;;;33.72;22.13;;;;;;;7.44;82.78;102674.78;5007562;28;20064;-70
2021/12/14 02:29:38;;;;;;;35.95;24.33;;;;;;;7.46;82.83;102678.28;5010509;28;20120;-70
2021/12/14 02:32:08;;;;;;;38.47;26.48;;;;;;;7.46;82.58;102667.78;5005088;28;20072;-68
2021/12/14 02:34:39;;;;;;;32.83;23.48;;;;;;;7.51;82.59;102667.81;5021060;28;20071;-70
2021/12/14 02:37:05;;;;;;;36.15;23.88;;;;;;;7.49;82.57;102667.81;5006406;28;20022;-68
2021/12/14 02:42:13;;;;;;;42.38;28.05;;;;;;;7.41;82.70;102674.75;5022252;28;20057;-68
2021/12/14 02:44:39;;;;;;;38.80;25.08;;;;;;;7.45;82.92;102666.94;5020606;28;20092;-69
2021/12/14 02:47:11;;;;;;;38.00;25.48;;;;;;;7.44;82.81;102659.03;5020657;28;20033;-70
2021/12/14 02:49:37;;;;;;;37.65;25.33;;;;;;;7.40;82.73;102666.00;5024217;28;20080;-68
2021/12/14 02:52:12;;;;;;;38.15;26.40;;;;;;;7.44;82.77;102669.53;5016127;28;20026;-70
2021/12/14 02:54:50;;;;;;;37.50;25.45;;;;;;;7.44;82.81;102662.53;4999902;28;20105;-67
2021/12/14 02:57:20;;;;;;;42.10;30.03;;;;;;;7.36;82.87;102655.44;5018476;28;20334;-68
2021/12/14 02:59:48;;;;;;;42.33;28.35;;;;;;;7.40;82.76;102649.38;5024930;28;20033;-69
2021/12/14 03:02:21;;;;;;;34.47;23.20;;;;;;;7.39;82.99;102648.50;5023484;28;20033;-69
2021/12/14 03:04:54;;;;;;;39.75;26.55;;;;;;;7.42;82.72;102645.03;4990565;28;20048;-68
2021/12/14 03:07:24;;;;;;;35.85;25.08;;;;;;;7.38;82.84;102649.38;5003638;28;20440;-69
2021/12/14 03:12:39;;;;;;;35.85;23.20;;;;;;;7.39;82.82;102669.50;5062023;28;20397;-66
2021/12/14 03:15:13;;;;;;;42.42;26.13;;;;;;;7.38;82.70;102672.09;5060223;28;20134;-69
2021/12/14 03:17:39;;;;;;;39.85;27.63;;;;;;;7.31;82.82;102664.16;5059536;28;20083;-70
2021/12/14 03:20:10;;;;;;;32.30;23.27;;;;;;;7.35;82.79;102670.34;5051834;28;20033;-70
2021/12/14 03:22:45;;;;;;;34.95;24.10;;;;;;;7.39;82.80;102668.59;5061810;28;20296;-70
2021/12/14 03:25:13;;;;;;;41.28;28.55;;;;;;;7.35;82.95;102674.69;5060729;28;20024;-69
2021/12/14 03:27:40;;;;;;;35.50;24.45;;;;;;;7.32;82.84;102671.16;5060195;28;20107;-69
2021/12/14 03:30:17;;;;;;;34.65;23.38;;;;;;;7.30;82.79;102667.66;5051357;28;20029;-68
2021/12/14 03:32:42;;;;;;;35.70;23.67;;;;;;;7.27;83.03;102657.13;5046239;28;20040;-68
2021/12/14 03:35:07;;;;;;;31.85;23.08;;;;;;;7.31;82.91;102668.53;5042389;28;20029;-70
2021/12/14 03:37:33;;;;;;;31.90;21.60;;;;;;;7.26;83.00;102673.75;5061014;28;20029;-68
2021/12/14 03:40:00;;;;;;;37.88;21.60;;;;;;;7.26;83.03;102684.25;5047186;28;20471;-69
2021/12/14 03:42:36;;;;;;;33.70;24.15;;;;;;;7.31;82.72;102685.13;5044023;28;20072;-69
2021/12/14 03:45:04;;;;;;;38.83;25.20;;;;;;;7.32;82.53;102686.88;5041649;28;20060;-69
2021/12/14 03:47:36;;;;;;;34.70;22.42;;;;;;;7.38;82.37;102687.84;5040631;28;20029;-68
2021/12/14 03:50:14;;;;;;;30.23;22.52;;;;;;;7.40;82.21;102688.69;5040984;28;20109;-69
2021/12/14 03:52:42;;;;;;;29.30;21.63;;;;;;;7.41;82.08;102693.97;5042521;28;20060;-68
2021/12/14 03:55:13;;;;;;;27.73;19.85;;;;;;;7.39;82.17;102692.19;5053351;28;20067;-69
2021/12/14 03:57:38;;;;;;;30.80;20.75;;;;;;;7.40;81.81;102692.22;5048802;28;20033;-69
2021/12/14 04:00:07;;;;;;;29.23;20.02;;;;;;;7.40;82.01;102689.59;5049975;28;21017;-68
2021/12/14 04:02:32;;;;;;;29.67;21.08;;;;;;;7.32;82.20;102671.16;5040840;28;20107;-68
2021/12/14 04:05:06;;;;;;;37.28;22.77;;;;;;;7.32;82.30;102672.91;5039357;28;20124;-68
2021/12/14 04:07:34;;;;;;;27.92;18.48;;;;;;;7.32;82.41;102675.53;5049131;28;20025;-68
2021/12/14 04:10:00;;;;;;;29.05;20.70;;;;;;;7.35;82.09;102674.69;5032437;28;20635;-67
2021/12/14 04:12:26;;;;;;;37.15;23.45;;;;;;;7.29;81.97;102679.00;5049805;28;20067;-68
2021/12/14 04:14:55;;;;;;;32.88;20.08;;;;;;;7.24;82.47;102667.59;5056837;28;20491;-71
2021/12/14 04:17:22;;;;;;;26.95;20.05;;;;;;;7.32;82.14;102680.78;5037804;28;20052;-70
2021/12/14 04:19:47;;;;;;;25.02;18.13;;;;;;;7.32;81.92;102684.28;5040430;28;20021;-67
2021/12/14 04:22:20;;;;;;;29.88;21.13;;;;;;;7.31;82.09;102685.13;5035822;28;20040;-70
2021/12/14 04:24:47;;;;;;;28.23;20.33;;;;;;;7.28;82.31;102694.72;5026946;28;20100;-69
2021/12/14 04:27:16;;;;;;;26.50;18.55;;;;;;;7.28;82.08;102685.09;5026554;28;20100;-70
2021/12/14 04:29:42;;;;;;;25.08;17.85;;;;;;;7.26;82.09;102681.63;5027944;28;20105;-69
2021/12/14 04:32:10;;;;;;;25.73;19.00;;;;;;;7.29;82.00;102681.63;5025869;28;20408;-70
2021/12/14 04:34:35;;;;;;;29.98;20.48;;;;;;;7.22;82.27;102679.81;5046095;28;20037;-70
2021/12/14 04:37:01;;;;;;;26.42;17.75;;;;;;;7.28;81.79;102681.59;5046488;28;20371;-69
2021/12/14 04:39:38;;;;;;;26.35;18.88;;;;;;;7.27;82.09;102688.59;5046249;28;20502;-69
2021/12/14 04:53:47;;;;;;;22.92;16.50;;;;;;;7.25;81.62;102652.75;5036307;28;20043;-69
2021/12/14 04:56:17;;;;;;;23.20;16.63;;;;;;;7.28;81.46;102658.88;5027063;28;20105;-69
2021/12/14 04:58:47;;;;;;;23.00;16.15;;;;;;;7.36;81.30;102661.59;5025990;28;20083;-69
2021/12/14 05:01:13;;;;;;;26.05;18.05;;;;;;;7.31;80.91;102658.91;5024752;28;20045;-68
2021/12/14 05:03:43;;;;;;;25.58;17.73;;;;;;;7.26;81.14;102660.63;5034472;28;20114;-69
2021/12/14 05:06:22;;;;;;;25.80;16.70;;;;;;;7.25;81.49;102656.22;5046187;28;20376;-67
2021/12/14 05:11:21;;;;;;;21.70;14.48;;;;;;;7.30;81.01;102645.78;5046026;28;20053;-69
2021/12/14 05:13:51;;;;;;;21.23;15.47;;;;;;;7.27;81.08;102654.53;5037521;28;20075;-69
2021/12/14 05:16:25;;;;;;;22.60;15.80;;;;;;;7.25;81.20;102658.84;5041714;28;20341;-68
2021/12/14 05:18:54;;;;;;;20.67;15.07;;;;;;;7.28;80.94;102658.88;5037940;28;20373;-69
2021/12/14 05:21:24;;;;;;;22.30;15.53;;;;;;;7.30;81.06;102658.91;5026276;28;20032;-70
2021/12/14 05:23:49;;;;;;;21.10;15.45;;;;;;;7.33;80.90;102645.81;5024360;28;20040;-67
2021/12/14 05:26:15;;;;;;;18.83;14.10;;;;;;;7.30;80.85;102646.69;5031000;28;20033;-68
2021/12/14 05:28:43;;;;;;;21.40;14.48;;;;;;;7.32;80.87;102651.94;5027317;28;20022;-71
2021/12/14 05:31:08;;;;;;;18.92;13.65;;;;;;;7.24;80.98;102651.88;5025868;28;20057;-69
2021/12/14 05:33:34;;;;;;;23.20;14.60;;;;;;;7.26;80.95;102660.63;5026328;28;20563;-68
2021/12/14 05:36:05;;;;;;;18.33;13.18;;;;;;;7.29;80.80;102659.78;5024980;28;20021;-70
2021/12/14 05:38:54;;;;;;;17.95;13.52;;;;;;;7.32;80.39;102660.66;5026316;28;20025;-69
2021/12/14 05:44:18;;;;;;;20.95;13.77;;;;;;;7.28;80.94;102658.88;5046434;28;20309;-68
2021/12/14 05:46:50;;;;;;;21.33;14.85;;;;;;;7.22;80.92;102661.44;5043393;28;20075;-70
2021/12/14 05:49:17;;;;;;;20.35;13.90;;;;;;;7.22;81.14;102664.06;5045603;28;20123;-70
2021/12/14 05:51:42;;;;;;;20.92;14.57;;;;;;;7.30;80.69;102666.78;5045928;28;20100;-69
2021/12/14 05:54:08;;;;;;;22.13;14.80;;;;;;;7.24;81.15;102664.97;5034046;28;20113;-69
2021/12/14 05:56:34;;;;;;;22.38;15.13;;;;;;;7.23;80.95;102676.34;5027793;28;20384;-68
2021/12/14 05:59:00;;;;;;;20.73;13.50;;;;;;;7.28;80.77;102678.97;5026277;28;20021;-69
2021/12/14 06:01:29;;;;;;;21.08;15.30;;;;;;;7.26;81.00;102685.97;5034804;28;20491;-68
2021/12/14 06:04:05;;;;;;;24.00;14.98;;;;;;;7.22;81.01;102685.03;5043982;28;20360;-68
2021/12/14 06:06:46;;;;;;;26.73;15.13;;;;;;;7.19;81.29;102683.28;5035171;28;20025;-67
2021/12/14 06:09:33;;;;;;;22.33;14.45;;;;;;;7.22;81.00;102679.81;5024741;28;20029;-69
2021/12/14 06:12:10;;;;;;;21.08;15.02;;;;;;;7.23;80.98;102684.19;5023773;28;20085;-69
2021/12/14 06:14:42;;;;;;;20.88;14.23;;;;;;;7.24;80.93;102677.19;5025835;28;20391;-69
2021/12/14 06:17:08;;;;;;;25.05;14.73;;;;;;;7.18;81.47;102678.91;5034511;28;20083;-72
2021/12/14 06:19:39;;;;;;;24.38;15.73;;;;;;;7.23;81.19;102689.44;5045447;28;20031;-70
2021/12/14 06:22:13;;;;;;;22.13;14.27;;;;;;;7.26;80.90;102692.09;5043673;28;20029;-69
2021/12/14 06:24:44;;;;;;;23.58;14.55;;;;;;;7.23;81.07;102692.06;5045089;28;20392;-69
2021/12/14 06:27:12;;;;;;;23.13;14.48;;;;;;;7.23;81.09;102685.94;5037891;28;20024;-68
2021/12/14 06:29:43;;;;;;;23.45;14.90;;;;;;;7.31;80.86;102686.88;5025543;28;20364;-68
2021/12/14 06:32:16;;;;;;;23.13;13.95;;;;;;;7.33;80.73;102690.41;5026594;28;20395;-68
2021/12/14 06:34:47;;;;;;;22.20;14.45;;;;;;;7.33;80.78;102691.28;5045653;28;20029;-69
2021/12/14 06:40:10;;;;;;;21.90;14.80;;;;;;;7.33;80.86;102693.03;5012868;28;20044;-69
2021/12/14 06:42:43;;;;;;;25.48;14.75;;;;;;;7.33;80.85;102693.91;5028665;28;20473;-70
2021/12/14 06:45:16;;;;;;;22.92;14.77;;;;;;;7.33;80.78;102686.06;5041963;28;20060;-70
2021/12/14 06:47:43;;;;;;;23.13;14.45;;;;;;;7.31;80.90;102689.50;5039288;28;20028;-70
2021/12/14 06:50:14;;;;;;;23.58;15.60;;;;;;;7.32;80.64;102701.78;5025010;28;20124;-69
2021/12/14 06:52:40;;;;;;;27.38;16.75;;;;;;;7.23;81.29;102712.16;5023519;28;20558;-71
2021/12/14 06:55:07;;;;;;;19.88;14.50;;;;;;;7.30;81.08;102720.09;5043359;28;20056;-68
2021/12/14 06:57:32;;;;;;;20.25;14.38;;;;;;;7.34;80.77;102715.75;5043560;28;20025;-69
2021/12/14 06:59:59;;;;;;;23.38;14.85;;;;;;;7.35;80.83;102711.41;5042299;28;20487;-67
2021/12/14 07:02:25;;;;;;;26.00;16.17;;;;;;;7.30;80.87;102713.97;5043934;28;20028;-68
2021/12/14 07:04:51;;;;;;;23.38;15.40;;;;;;;7.31;81.07;102715.72;5028811;28;20030;-65
2021/12/14 07:07:22;;;;;;;30.13;17.25;;;;;;;7.36;80.68;102721.91;5024216;28;20068;-69
2021/12/14 07:09:54;;;;;;;24.13;16.38;;;;;;;7.37;80.58;102709.69;5027430;28;20025;-68
2021/12/14 07:12:27;;;;;;;23.35;14.88;;;;;;;7.40;80.82;102722.81;5023686;28;20459;-69
2021/12/14 07:14:53;;;;;;;27.95;16.67;;;;;;;7.40;80.79;102720.19;5022399;28;20021;-70
2021/12/14 07:17:27;;;;;;;22.50;16.00;;;;;;;7.35;80.74;102712.28;5024267;28;20112;-69
2021/12/14 07:20:07;;;;;;;23.90;15.63;;;;;;;7.35;81.16;102716.66;5038006;28;20132;-69
2021/12/14 07:22:43;;;;;;;30.90;18.48;;;;;;;7.31;81.15;102707.84;5071592;28;20040;-68
2021/12/14 07:25:13;;;;;;;25.90;16.75;;;;;;;7.33;81.16;102720.16;5042771;28;20088;-69
2021/12/14 07:27:41;;;;;;;29.88;18.15;;;;;;;7.25;81.43;102720.94;5044124;28;20120;-72
2021/12/14 07:30:25;;;;;;;28.83;17.25;;;;;;;7.28;81.63;102726.19;5040440;28;20780;-77
2021/12/14 07:32:57;;;;;;;27.85;16.50;;;;;;;7.32;81.31;102728.00;5038407;28;20075;-68
2021/12/14 07:35:27;;;;;;;32.30;17.83;;;;;;;7.24;81.62;102732.25;5040065;28;20420;-68
2021/12/14 07:38:00;;;;;;;22.33;14.38;;;;;;;7.26;81.46;102741.03;5037361;28;20032;-69
2021/12/14 07:40:34;;;;;;;30.02;17.20;;;;;;;7.26;81.70;102739.31;5040116;28;20021;-70
2021/12/14 07:43:14;;;;;;;25.25;16.02;;;;;;;7.29;81.64;102744.56;5041672;28;20455;-69
2021/12/14 07:45:39;;;;;;;25.00;16.38;;;;;;;7.32;81.45;102749.84;5039835;28;20070;-69
2021/12/14 07:48:05;;;;;;;26.42;16.65;;;;;;;7.40;81.14;102752.53;5043443;28;20452;-70
2021/12/14 07:50:44;;;;;;;26.90;16.15;;;;;;;7.37;81.48;102749.03;5042876;28;20063;-70
2021/12/14 07:53:10;;;;;;;23.77;15.57;;;;;;;7.44;81.28;102756.09;5041201;28;20349;-70
2021/12/14 07:55:42;;;;;;;28.45;17.15;;;;;;;7.48;81.16;102755.25;5043133;28;20032;-70
2021/12/14 07:58:07;;;;;;;23.90;15.55;;;;;;;7.45;81.52;102765.72;5042320;28;20021;-70
2021/12/14 08:00:39;;;;;;;27.05;16.73;;;;;;;7.52;81.16;102764.91;5044986;28;20116;-71
2021/12/14 08:03:05;;;;;;;28.15;15.68;;;;;;;7.56;80.96;102764.06;5044524;28;20037;-70
2021/12/14 08:05:43;;;;;;;26.15;17.10;;;;;;;7.55;81.31;102769.28;5047095;28;20481;-71
2021/12/14 08:08:17;;;;;;;28.70;17.92;;;;;;;7.55;81.18;102767.56;5044537;28;20009;-68
2021/12/14 08:10:48;;;;;;;29.33;17.02;;;;;;;7.58;81.17;102764.06;5044068;28;20446;-66
2021/12/14 08:13:18;;;;;;;27.73;15.43;;;;;;;7.63;81.22;102766.75;5043819;28;20054;-69
2021/12/14 08:15:49;;;;;;;26.20;16.30;;;;;;;7.63;81.67;102775.50;5047405;28;20029;-69
2021/12/14 08:18:28;;;;;;;28.63;15.27;;;;;;;7.64;81.61;102763.25;5045691;28;20048;-69
2021/12/14 08:21:00;;;;;;;30.55;17.13;;;;;;;7.63;82.10;102766.75;5032649;28;20033;-68
2021/12/14 08:23:29;;;;;;;27.33;17.58;;;;;;;7.64;82.02;102771.13;5027748;28;20065;-69
2021/12/14 08:26:03;;;;;;;33.35;18.83;;;;;;;7.61;82.25;102777.22;5039408;28;20048;-65
2021/12/14 08:28:28;;;;;;;33.78;18.60;;;;;;;7.62;82.19;102775.50;5047272;28;20029;-68
2021/12/14 08:31:00;;;;;;;37.53;19.75;;;;;;;7.55;82.80;102778.06;5044166;28;20048;-69
2021/12/14 08:33:27;;;;;;;28.50;16.38;;;;;;;7.63;82.93;102772.00;5037740;28;20025;-68
2021/12/14 08:35:55;;;;;;;30.45;17.25;;;;;;;7.66;82.83;102782.53;5027513;28;20018;-70
2021/12/14 08:38:21;;;;;;;37.63;20.60;;;;;;;7.68;83.07;102799.19;5025775;28;20027;-69
2021/12/14 08:40:51;;;;;;;33.55;18.52;;;;;;;7.70;83.19;102790.44;5028138;28;20476;-73
2021/12/14 08:43:30;;;;;;;35.42;19.33;;;;;;;7.69;83.06;102798.31;5032961;28;20460;-78
2021/12/14 08:46:09;;;;;;;40.28;20.73;;;;;;;7.63;83.26;102800.84;5041762;28;20021;-75
2021/12/14 08:48:41;;;;;;;37.53;19.67;;;;;;;7.72;83.21;102803.59;5030557;28;20040;-73
2021/12/14 08:51:20;;;;;;;34.20;18.85;;;;;;;7.67;83.27;102797.41;5031076;28;20392;-77
2021/12/14 08:53:47;;;;;;;;;;;;;;;7.56;83.84;102799.94;5034660;28;20037;-79
2021/12/14 08:56:14;;;;;;;32.78;18.73;;;;;;;7.62;83.76;102805.25;5032156;28;19916;-78
2021/12/14 08:58:40;;;;;;;37.50;20.00;;;;;;;7.60;83.75;102796.47;5039783;28;20082;-80
2021/12/14 09:01:11;;;;;;;32.67;19.02;;;;;;;7.65;83.67;102794.75;5030385;28;20029;-79
2021/12/14 09:03:43;;;;;;;39.88;21.08;;;;;;;7.69;83.69;102790.44;5034423;28;20032;-74
2021/12/14 09:06:15;;;;;;;35.88;21.20;;;;;;;7.71;83.51;102789.56;5042462;28;20051;-70
2021/12/14 09:08:42;;;;;;;35.70;19.38;;;;;;;7.73;83.75;102781.72;5043350;28;20028;-72
2021/12/14 09:11:09;;;;;;;41.40;21.27;;;;;;;7.81;83.51;102787.03;5039589;28;20122;-73
2021/12/14 09:13:34;;;;;;;38.92;22.02;;;;;;;7.76;83.83;102792.25;5035668;28;20033;-71
2021/12/14 09:16:13;;;;;;;37.55;21.00;;;;;;;7.80;83.63;102783.53;5041978;28;20037;-69
2021/12/14 09:18:43;;;;;;;33.90;19.45;;;;;;;7.81;83.96;102781.78;5040168;28;20037;-70
2021/12/14 09:21:13;;;;;;;39.20;20.55;;;;;;;7.80;84.09;102790.53;5043397;28;20352;-68
2021/12/14 09:23:42;;;;;;;40.25;22.48;;;;;;;7.86;83.95;102787.09;5045398;28;20435;-71
2021/12/14 09:26:17;;;;;;;35.30;20.45;;;;;;;7.90;83.48;102795.00;5043513;28;20017;-67
2021/12/14 09:28:43;;;;;;;35.92;21.27;;;;;;;7.95;83.63;102795.91;5046208;28;20032;-72
2021/12/14 09:31:13;;;;;;;36.67;21.95;;;;;;;7.96;83.63;102789.81;5035733;28;20313;-72
2021/12/14 09:33:41;;;;;;;36.47;20.40;;;;;;;8.06;83.43;102792.50;5037201;28;20085;-72
2021/12/14 09:36:12;;;;;;;39.50;22.02;;;;;;;8.16;82.73;102801.34;5043110;28;20009;-74
2021/12/14 09:38:48;;;;;;;43.28;22.10;;;;;;;8.14;82.97;102795.19;5038849;28;20472;-71
2021/12/14 09:41:17;;;;;;;36.53;19.30;;;;;;;8.11;83.22;102803.03;5042301;28;20107;-70
2021/12/14 09:43:45;;;;;;;39.95;21.80;;;;;;;8.11;83.00;102803.94;5029547;28;20013;-71
2021/12/14 09:46:10;;;;;;;36.30;20.25;;;;;;;8.20;82.77;102808.38;5026847;28;20471;-70
2021/12/14 09:48:50;;;;;;;33.15;19.02;;;;;;;8.24;82.46;102799.63;5026021;28;20104;-71
2021/12/14 09:51:20;;;;;;;38.65;22.73;;;;;;;8.25;82.39;102797.91;5041675;28;20047;-68
2021/12/14 09:53:46;;;;;;;;;;;;;;;8.24;82.26;102794.38;5043566;28;20328;-68
2021/12/14 09:56:14;;;;;;;42.10;20.00;;;;;;;8.28;82.35;102804.03;5063503;28;19962;-68
2021/12/14 09:58:44;;;;;;;37.42;20.70;;;;;;;8.38;82.10;102796.22;5042484;28;20492;-67
2021/12/14 10:01:17;;;;;;;37.38;19.58;;;;;;;8.44;81.58;102780.53;5043561;28;20041;-70
2021/12/14 10:03:46;;;;;;;32.88;19.13;;;;;;;8.52;81.24;102789.31;5041633;28;20452;-76
2021/12/14 10:06:17;;;;;;;32.50;17.75;;;;;;;8.62;80.81;102789.41;5043035;28;20062;-71
2021/12/14 10:08:48;;;;;;;34.00;19.63;;;;;;;8.68;80.94;102792.97;5039123;28;20491;-73
2021/12/14 10:11:34;;;;;;;31.20;19.50;;;;;;;8.72;80.63;102788.59;5027420;28;20037;-69
2021/12/14 10:13:59;;;;;;;30.15;18.92;;;;;;;8.70;80.56;102792.97;5024444;28;20017;-69
2021/12/14 10:16:24;;;;;;;38.55;19.08;;;;;;;8.71;80.53;102792.09;5024092;28;20052;-70
2021/12/14 10:18:56;;;;;;;34.38;19.33;;;;;;;8.77;80.13;102792.13;5036713;28;20033;-71
2021/12/14 10:21:27;;;;;;;28.50;18.98;;;;;;;8.77;79.96;102804.38;5024561;28;20032;-72
2021/12/14 10:23:54;;;;;;;31.92;18.83;;;;;;;8.91;79.90;102801.84;5023438;28;20526;-73
2021/12/14 10:26:21;;;;;;;34.17;19.15;;;;;;;9.00;79.44;102799.22;5026211;28;20183;-70
2021/12/14 10:28:51;;;;;;;35.90;19.20;;;;;;;9.12;79.36;102795.78;5027825;28;20706;-69
2021/12/14 10:31:32;;;;;;;31.85;19.90;;;;;;;9.10;79.10;102797.53;5022672;28;20013;-71
2021/12/14 10:33:59;;;;;;;34.03;18.85;;;;;;;9.20;79.00;102801.06;5032165;28;20044;-72
2021/12/14 10:36:32;;;;;;;29.50;18.33;;;;;;;9.16;78.90;102802.81;5026145;28;20014;-72
2021/12/14 10:44:11;;;;;;;29.88;17.95;;;;;;;9.03;80.10;102803.66;5024164;28;20120;-70
2021/12/14 10:46:45;;;;;;;37.05;20.33;;;;;;;8.96;80.71;102801.00;5024561;28;20096;-71
2021/12/14 10:49:12;;;;;;;33.88;19.00;;;;;;;8.88;81.06;102796.56;5043789;28;20074;-72
2021/12/14 10:51:40;;;;;;;38.55;19.10;;;;;;;8.85;81.45;102800.94;5044090;28;20391;-74
2021/12/14 10:54:09;;;;;;;35.33;19.63;;;;;;;8.70;82.29;102798.25;5043739;28;20490;-73
2021/12/14 10:56:48;;;;;;;36.88;20.15;;;;;;;8.75;82.43;102801.75;5043392;28;20445;-75
2021/12/14 10:59:22;;;;;;;;;;;;;;;8.77;82.76;102796.50;5044648;28;20187;-74
2021/12/14 11:01:50;;;;;;;34.28;18.90;;;;;;;8.82;82.65;102792.16;5030502;28;19909;-76
2021/12/14 11:04:22;;;;;;;40.75;20.92;;;;;;;8.87;82.60;102787.78;5026746;28;20113;-71
2021/12/14 11:06:50;;;;;;;36.08;18.75;;;;;;;8.90;82.52;102794.81;5037437;28;20434;-69
2021/12/14 11:09:42;;;;;;;34.97;18.48;;;;;;;8.91;82.87;102788.69;5043077;28;20086;-68
2021/12/14 11:12:30;;;;;;;34.38;18.60;;;;;;;8.92;82.80;102786.06;5026019;28;20046;-71
2021/12/14 11:14:59;;;;;;;35.05;20.10;;;;;;;8.96;82.56;102786.94;5023186;28;20033;-70
2021/12/14 11:20:15;;;;;;;32.45;18.10;;;;;;;8.90;83.21;102789.53;5045102;28;20424;-71
2021/12/14 11:22:43;;;;;;;33.92;19.92;;;;;;;8.89;83.45;102782.53;5027297;28;20037;-71
2021/12/14 11:25:16;;;;;;;33.53;20.17;;;;;;;8.86;83.44;102788.66;5022684;28;20033;-70
2021/12/14 11:27:46;;;;;;;31.83;17.10;;;;;;;8.85;83.61;102789.53;5041054;28;20033;-70
2021/12/14 11:30:32;;;;;;;34.25;18.65;;;;;;;8.83;83.97;102786.91;5042117;28;20439;-69
2021/12/14 11:33:20;;;;;;;31.83;19.10;;;;;;;8.89;83.72;102785.16;5026929;28;20516;-70
2021/12/14 11:36:06;;;;;;;34.45;19.52;;;;;;;8.91;83.50;102786.06;5027925;28;20057;-70
2021/12/14 11:38:38;;;;;;;36.78;20.05;;;;;;;8.89;83.42;102788.69;5044689;28;20123;-70
2021/12/14 11:41:39;;;;;;;27.70;18.23;;;;;;;8.87;83.76;102784.28;5047241;28;20112;-71
2021/12/14 11:44:10;;;;;;;38.92;19.35;;;;;;;8.84;83.98;102780.78;5027949;28;20597;-69
2021/12/14 11:47:00;;;;;;;32.17;19.10;;;;;;;8.85;84.13;102782.53;5028155;28;20462;-69
2021/12/14 11:49:44;;;;;;;31.92;18.40;;;;;;;8.80;84.30;102779.00;5028229;28;20021;-69
2021/12/14 11:52:10;;;;;;;28.65;18.75;;;;;;;8.82;84.09;102777.25;5027810;28;20084;-70
2021/12/14 11:54:45;;;;;;;30.95;18.13;;;;;;;8.89;84.16;102777.28;5028475;28;20132;-69
2021/12/14 11:57:12;;;;;;;27.70;16.92;;;;;;;8.90;84.07;102779.91;5028632;28;20040;-62
2021/12/14 11:59:38;;;;;;;31.40;18.23;;;;;;;8.83;84.31;102781.66;5043839;28;20021;-64
2021/12/14 12:02:04;;;;;;;31.27;18.95;;;;;;;8.82;84.58;102777.25;5046240;28;20029;-63
2021/12/14 12:04:34;;;;;;;26.27;17.73;;;;;;;8.76;84.83;102771.97;5045816;28;20475;-69
2021/12/14 12:09:51;;;;;;;31.30;19.08;;;;;;;8.75;84.97;102778.09;5047115;28;20033;-65
2021/12/14 12:12:22;;;;;;;30.75;17.83;;;;;;;8.78;84.89;102777.22;5043826;28;20050;-69
2021/12/14 12:15:02;;;;;;;33.28;18.23;;;;;;;8.78;84.83;102775.47;5039911;28;20130;-67
2021/12/14 12:17:31;;;;;;;29.30;16.85;;;;;;;8.75;85.32;102778.09;5045896;28;20025;-67
2021/12/14 12:20:23;;;;;;;29.38;17.23;;;;;;;8.73;85.34;102777.19;5030877;28;20040;-66